Time;durP1;ratioP1;P1;durP2;ratioP2;P2;SDS_P1;SDS_P2;PMS_P1;PMS_P2;Temp;Humidity;BMP_temperature;BMP_pressure;BME280_temperature;BME280_humidity;BME280_pressure;Samples;Min_cycle;Max_cycle;Signal;HPM_P1;HPM_P2
2024/01/29 00:03:09;;;;;;;1.55;1.17;;;18.60;42.20;;;;;;8359688;28;20625;-54
2024/01/29 00:07:09;;;;;;;0.98;0.88;;;18.60;42.10;;;;;;8359057;28;20053;-52
2024/01/29 00:11:11;;;;;;;0.95;0.93;;;18.60;42.10;;;;;;8359209;28;20041;-53
2024/01/29 00:15:11;;;;;;;1.17;0.98;;;18.60;42.20;;;;;;8341564;28;20033;-51
2024/01/29 00:19:13;;;;;;;1.10;1.00;;;18.60;42.10;;;;;;8359205;28;20033;-51
2024/01/29 00:23:14;;;;;;;1.35;1.10;;;18.60;42.10;;;;;;8358959;28;20033;-54
2024/01/29 00:27:14;;;;;;;1.10;1.00;;;18.60;42.10;;;;;;8358929;28;20072;-53
2024/01/29 00:31:16;;;;;;;1.08;0.95;;;18.60;42.10;;;;;;8358829;28;20064;-52
2024/01/29 00:35:17;;;;;;;1.35;0.95;;;18.60;42.10;;;;;;8358727;28;20441;-54
2024/01/29 00:39:18;;;;;;;1.00;0.88;;;18.60;42.10;;;;;;8358959;28;20214;-54
2024/01/29 00:43:19;;;;;;;1.15;1.00;;;18.60;42.10;;;;;;8358684;28;20091;-51
2024/01/29 00:47:20;;;;;;;1.23;1.00;;;18.60;42.10;;;;;;8358806;28;20033;-54
2024/01/29 00:51:21;;;;;;;1.02;0.95;;;18.60;42.20;;;;;;8358008;28;20029;-52
2024/01/29 00:55:21;;;;;;;1.25;0.93;;;18.60;42.20;;;;;;8364493;28;20391;-52
2024/01/29 00:59:22;;;;;;;1.00;0.90;;;18.60;42.10;;;;;;8364683;28;20033;-51
2024/01/29 01:03:23;;;;;;;1.23;1.13;;;18.60;42.10;;;;;;8364088;28;20029;-51
2024/01/29 01:07:24;;;;;;;0.80;0.80;;;18.60;42.10;;;;;;8364045;28;20061;-49
2024/01/29 01:11:25;;;;;;;0.95;0.85;;;18.60;42.20;;;;;;8363851;28;20044;-49
2024/01/29 01:15:25;;;;;;;2.67;0.95;;;18.60;42.10;;;;;;8363658;28;20033;-49
2024/01/29 01:19:26;;;;;;;1.88;1.00;;;18.60;42.10;;;;;;8363866;28;20083;-50
2024/01/29 01:23:27;;;;;;;1.00;0.98;;;18.60;42.10;;;;;;8363651;28;20033;-48
2024/01/29 01:27:27;;;;;;;1.23;0.90;;;18.60;42.20;;;;;;8363368;28;20647;-49
2024/01/29 01:31:28;;;;;;;0.93;0.82;;;18.50;42.10;;;;;;8363662;28;20040;-51
2024/01/29 01:35:29;;;;;;;0.90;0.90;;;18.60;42.20;;;;;;8363216;28;20037;-49
2024/01/29 01:39:29;;;;;;;1.60;1.00;;;18.50;42.10;;;;;;8363272;28;20119;-51
2024/01/29 01:43:30;;;;;;;0.82;0.80;;;18.50;42.20;;;;;;8363104;28;20735;-50
2024/01/29 01:47:31;;;;;;;1.07;1.00;;;18.60;42.20;;;;;;8361715;28;20037;-50
2024/01/29 01:51:32;;;;;;;0.90;0.80;;;18.60;42.20;;;;;;8362632;28;20294;-51
2024/01/29 01:55:33;;;;;;;1.92;0.90;;;18.50;42.10;;;;;;8362685;28;20091;-50
2024/01/29 01:59:38;;;;;;;1.02;0.80;;;18.50;42.10;;;;;;8362584;28;20171;-49
2024/01/29 02:03:40;;;;;;;0.93;0.80;;;18.50;42.10;;;;;;8361904;28;20109;-50
2024/01/29 02:07:40;;;;;;;1.45;1.20;;;18.50;42.10;;;;;;8362232;28;20061;-50
2024/01/29 02:11:41;;;;;;;1.08;0.90;;;18.50;42.20;;;;;;8362010;28;20083;-54
2024/01/29 02:15:42;;;;;;;1.10;0.70;;;18.50;42.10;;;;;;8362172;28;20033;-54
2024/01/29 02:19:43;;;;;;;1.85;1.13;;;18.50;42.20;;;;;;8361998;28;20036;-54
2024/01/29 02:23:47;;;;;;;0.90;0.87;;;18.50;42.10;;;;;;8362153;28;20056;-53
2024/01/29 02:27:47;;;;;;;1.00;0.77;;;18.50;42.10;;;;;;8361314;28;20641;-52
2024/01/29 02:31:52;;;;;;;0.77;0.77;;;18.50;42.10;;;;;;8360801;28;20068;-53
2024/01/29 02:35:52;;;;;;;0.90;0.85;;;18.50;42.10;;;;;;8361252;28;20041;-54
2024/01/29 02:39:53;;;;;;;0.68;0.68;;;18.50;42.10;;;;;;8361479;28;20247;-54
2024/01/29 02:43:54;;;;;;;1.27;1.08;;;18.50;42.10;;;;;;8361079;28;20032;-54
2024/01/29 02:47:54;;;;;;;0.68;0.63;;;18.50;42.20;;;;;;8361135;28;20577;-54
2024/01/29 02:51:55;;;;;;;0.88;0.73;;;18.50;42.20;;;;;;8361081;28;20506;-54
2024/01/29 02:55:56;;;;;;;0.97;0.80;;;18.50;42.20;;;;;;8361040;28;20434;-53
2024/01/29 02:59:56;;;;;;;1.05;0.95;;;18.50;42.10;;;;;;8361272;28;20267;-54
2024/01/29 03:03:57;;;;;;;0.85;0.73;;;18.50;42.10;;;;;;8361114;28;20114;-55
2024/01/29 03:07:58;;;;;;;1.27;0.90;;;18.50;42.10;;;;;;8360038;28;20057;-54
2024/01/29 03:11:59;;;;;;;1.08;0.98;;;18.50;42.10;;;;;;8360794;28;20033;-52
2024/01/29 03:15:59;;;;;;;1.30;1.20;;;18.50;42.20;;;;;;8359729;28;20065;-54
2024/01/29 03:20:00;;;;;;;0.80;0.80;;;18.50;42.10;;;;;;8359328;28;20108;-53
2024/01/29 03:24:01;;;;;;;0.88;0.82;;;18.50;42.10;;;;;;8360547;28;20044;-54
2024/01/29 03:28:02;;;;;;;1.63;0.82;;;18.50;42.10;;;;;;8360551;28;20640;-54
2024/01/29 03:32:03;;;;;;;0.93;0.80;;;18.50;42.10;;;;;;8359001;28;20510;-54
2024/01/29 03:36:05;;;;;;;0.90;0.80;;;18.50;42.20;;;;;;8360591;28;20041;-50
2024/01/29 03:40:06;;;;;;;0.98;0.80;;;18.50;42.20;;;;;;8359831;28;20429;-54
2024/01/29 03:44:07;;;;;;;0.80;0.80;;;18.50;42.20;;;;;;8360207;28;20033;-54
2024/01/29 03:48:07;;;;;;;1.08;0.98;;;18.50;42.20;;;;;;8360207;28;20072;-54
2024/01/29 03:52:08;;;;;;;0.80;0.80;;;18.40;42.20;;;;;;8359758;28;20044;-51
2024/01/29 03:56:09;;;;;;;0.80;0.80;;;18.50;42.20;;;;;;8359668;28;20044;-53
2024/01/29 04:00:10;;;;;;;0.80;0.80;;;18.40;42.10;;;;;;8359807;28;20086;-53
2024/01/29 04:04:11;;;;;;;1.02;0.90;;;18.40;42.10;;;;;;8359914;28;20502;-52
2024/01/29 04:08:11;;;;;;;0.82;0.82;;;18.50;42.20;;;;;;8359426;28;20492;-52
2024/01/29 04:12:13;;;;;;;0.80;0.73;;;18.40;42.10;;;;;;8359547;28;20048;-54
2024/01/29 04:16:13;;;;;;;0.70;0.70;;;18.50;42.20;;;;;;8359773;28;20519;-52
2024/01/29 04:20:14;;;;;;;0.80;0.80;;;18.50;42.20;;;;;;8358274;28;20525;-53
2024/01/29 04:24:15;;;;;;;1.38;1.10;;;18.50;42.20;;;;;;8359509;28;20287;-53
2024/01/29 04:28:16;;;;;;;;;;;18.40;42.10;;;;;;8363515;28;20037;-51
2024/01/29 04:32:17;;;;;;;1.10;1.10;;;18.40;42.10;;;;;;8365739;28;19958;-54
2024/01/29 04:36:17;;;;;;;0.80;0.70;;;18.40;42.10;;;;;;8366664;28;20163;-54
2024/01/29 04:40:18;;;;;;;1.75;0.90;;;18.40;42.10;;;;;;8365298;28;20060;-55
2024/01/29 04:44:19;;;;;;;1.02;0.88;;;18.40;42.10;;;;;;8365315;28;20032;-52
2024/01/29 04:48:20;;;;;;;0.55;0.55;;;18.50;42.20;;;;;;8366115;28;20033;-55
2024/01/29 04:52:21;;;;;;;1.02;0.95;;;18.40;42.10;;;;;;8365026;28;20033;-54
2024/01/29 04:56:22;;;;;;;1.30;1.05;;;18.40;42.10;;;;;;8364681;28;20033;-53
2024/01/29 05:00:23;;;;;;;0.90;0.90;;;18.40;42.10;;;;;;8364838;28;20022;-55
2024/01/29 05:04:24;;;;;;;1.20;0.82;;;18.40;42.10;;;;;;8364702;28;20033;-54
2024/01/29 05:08:25;;;;;;;1.57;0.93;;;18.40;42.10;;;;;;8364369;28;20060;-54
2024/01/29 05:12:25;;;;;;;0.95;0.80;;;18.40;42.10;;;;;;8364276;28;20275;-55
2024/01/29 05:16:28;;;;;;;1.02;0.98;;;18.40;42.10;;;;;;8362817;28;20399;-54
2024/01/29 05:20:32;;;;;;;1.00;0.80;;;18.40;42.10;;;;;;8364264;28;20055;-54
2024/01/29 05:24:32;;;;;;;0.70;0.70;;;18.40;42.10;;;;;;8363864;28;20483;-55
2024/01/29 05:28:33;;;;;;;1.20;0.80;;;18.40;42.10;;;;;;8363709;28;20433;-54
2024/01/29 05:32:34;;;;;;;0.80;0.80;;;18.40;42.10;;;;;;8363800;28;20546;-55
2024/01/29 05:36:34;;;;;;;0.82;0.82;;;18.50;42.00;;;;;;8363431;28;20037;-54
2024/01/29 05:40:35;;;;;;;0.80;0.80;;;18.50;42.00;;;;;;8362507;28;20379;-51
2024/01/29 05:44:36;;;;;;;0.73;0.73;;;18.60;41.90;;;;;;8363567;28;20501;-50
2024/01/29 05:48:37;;;;;;;0.65;0.65;;;18.60;41.80;;;;;;8363272;28;20284;-49
2024/01/29 05:52:37;;;;;;;0.80;0.80;;;18.60;41.70;;;;;;8363081;28;20104;-51
2024/01/29 05:56:42;;;;;;;1.25;1.00;;;18.70;41.70;;;;;;8361608;28;20036;-51
2024/01/29 06:00:43;;;;;;;1.13;0.90;;;18.70;41.60;;;;;;8362770;28;20029;-49
2024/01/29 06:04:43;;;;;;;1.00;0.90;;;18.70;41.60;;;;;;8362846;28;20112;-52
2024/01/29 06:08:44;;;;;;;0.90;0.90;;;18.70;41.60;;;;;;8362485;28;20063;-51
2024/01/29 06:12:45;;;;;;;0.95;0.95;;;18.70;41.60;;;;;;8361292;28;20108;-50
2024/01/29 06:16:45;;;;;;;0.80;0.80;;;18.70;41.60;;;;;;8362354;28;20041;-49
2024/01/29 06:20:47;;;;;;;0.70;0.70;;;18.70;41.60;;;;;;8362213;28;20029;-51
2024/01/29 06:24:48;;;;;;;1.00;0.90;;;18.70;41.60;;;;;;8362167;28;20029;-52
2024/01/29 06:28:49;;;;;;;0.63;0.63;;;18.70;41.60;;;;;;8361873;28;20060;-50
2024/01/29 06:32:49;;;;;;;1.00;0.90;;;18.70;41.60;;;;;;8360605;28;20060;-49
2024/01/29 06:36:52;;;;;;;0.98;0.88;;;18.70;41.60;;;;;;8361600;28;20505;-49
2024/01/29 06:40:53;;;;;;;1.02;0.80;;;18.70;41.50;;;;;;8362044;28;20028;-51
2024/01/29 06:44:54;;;;;;;0.82;0.80;;;18.80;41.60;;;;;;8361465;28;20045;-51
2024/01/29 06:48:55;;;;;;;0.90;0.80;;;18.80;41.60;;;;;;8359997;28;20033;-49
2024/01/29 06:52:55;;;;;;;0.80;0.80;;;18.70;41.50;;;;;;8361463;28;20048;-49
2024/01/29 06:56:56;;;;;;;0.68;0.60;;;18.80;41.50;;;;;;8359645;28;20075;-48
2024/01/29 07:00:59;;;;;;;0.80;0.80;;;18.70;41.50;;;;;;8360909;28;20044;-53
2024/01/29 07:05:00;;;;;;;0.60;0.60;;;18.80;41.60;;;;;;8361172;28;20435;-52
2024/01/29 07:09:01;;;;;;;0.77;0.77;;;18.70;41.50;;;;;;8359735;28;20092;-54
2024/01/29 07:13:01;;;;;;;0.85;0.85;;;18.70;41.50;;;;;;8360626;28;20053;-52
2024/01/29 07:17:02;;;;;;;1.17;1.00;;;18.80;41.50;;;;;;8360757;28;20086;-52
2024/01/29 07:21:03;;;;;;;1.15;1.05;;;18.80;41.50;;;;;;8360520;28;20229;-52
2024/01/29 07:25:05;;;;;;;0.70;0.70;;;18.70;41.50;;;;;;8360750;28;20037;-53
2024/01/29 07:29:06;;;;;;;0.93;0.60;;;18.70;41.50;;;;;;8359084;28;20112;-53
2024/01/29 07:33:07;;;;;;;1.23;0.93;;;18.70;41.50;;;;;;8360452;28;20090;-53
2024/01/29 07:37:07;;;;;;;1.10;1.00;;;18.80;41.50;;;;;;8360190;28;20037;-53
2024/01/29 07:41:08;;;;;;;0.70;0.70;;;18.80;41.50;;;;;;8360083;28;20021;-51
2024/01/29 07:45:09;;;;;;;0.85;0.82;;;18.80;41.50;;;;;;8360120;28;20048;-53
2024/01/29 07:49:10;;;;;;;0.70;0.70;;;18.80;41.50;;;;;;8360186;28;20670;-51
2024/01/29 07:53:11;;;;;;;;;;;18.70;41.50;;;;;;8360393;28;20108;-53
2024/01/29 07:57:12;;;;;;;0.73;0.70;;;18.80;41.40;;;;;;8358611;28;19920;-50
2024/01/29 08:01:12;;;;;;;0.80;0.68;;;18.80;41.50;;;;;;8361145;28;20036;-49
2024/01/29 08:05:13;;;;;;;1.25;0.82;;;18.80;41.50;;;;;;8366636;28;20039;-50
2024/01/29 08:09:14;;;;;;;1.05;0.93;;;18.80;41.50;;;;;;8366233;28;20939;-49
2024/01/29 08:13:14;;;;;;;0.68;0.68;;;18.80;41.50;;;;;;8366282;28;20037;-50
2024/01/29 08:17:15;;;;;;;1.13;0.95;;;18.80;41.40;;;;;;8366579;28;20033;-50
2024/01/29 08:21:16;;;;;;;0.77;0.77;;;18.70;41.40;;;;;;8366026;28;20056;-49
2024/01/29 08:25:18;;;;;;;0.80;0.80;;;18.80;41.40;;;;;;8366061;28;20033;-49
2024/01/29 08:29:18;;;;;;;1.13;1.02;;;18.70;41.40;;;;;;8364495;28;20510;-52
2024/01/29 08:33:19;;;;;;;0.88;0.88;;;18.70;41.40;;;;;;8366006;28;20371;-51
2024/01/29 08:37:20;;;;;;;0.80;0.80;;;18.80;41.40;;;;;;8365343;28;20029;-50
2024/01/29 08:41:20;;;;;;;0.82;0.80;;;18.80;41.50;;;;;;8365852;28;20429;-50
2024/01/29 08:45:21;;;;;;;1.00;0.90;;;18.80;41.50;;;;;;8365739;28;20044;-49
2024/01/29 08:49:22;;;;;;;0.93;0.82;;;18.70;41.40;;;;;;8365182;28;20056;-48
2024/01/29 08:53:23;;;;;;;0.93;0.70;;;18.80;41.40;;;;;;8365037;28;20527;-49
2024/01/29 08:57:23;;;;;;;0.65;0.65;;;18.70;41.40;;;;;;8364542;28;20115;-48
2024/01/29 09:01:24;;;;;;;0.70;0.70;;;18.80;41.40;;;;;;8363334;28;20033;-49
2024/01/29 09:05:25;;;;;;;0.80;0.75;;;18.80;41.40;;;;;;8364672;28;20037;-49
2024/01/29 09:09:26;;;;;;;1.30;1.20;;;18.80;41.50;;;;;;8363476;28;20060;-50
2024/01/29 09:13:26;;;;;;;0.60;0.60;;;18.70;41.40;;;;;;8364329;28;20036;-54
2024/01/29 09:17:27;;;;;;;0.70;0.70;;;18.80;41.50;;;;;;8364279;28;20060;-54
2024/01/29 09:21:34;;;;;;;0.70;0.70;;;18.80;41.40;;;;;;8364140;28;20025;-54
2024/01/29 09:25:35;;;;;;;0.80;0.80;;;18.80;41.40;;;;;;8363973;28;20037;-53
2024/01/29 09:29:35;;;;;;;0.82;0.80;;;18.80;41.40;;;;;;8363991;28;20417;-53
2024/01/29 09:33:36;;;;;;;1.02;0.80;;;18.80;41.40;;;;;;8363911;28;20041;-54
2024/01/29 09:37:39;;;;;;;1.65;1.25;;;18.80;41.40;;;;;;8363503;28;20102;-54
2024/01/29 09:41:40;;;;;;;1.00;1.00;;;18.80;41.40;;;;;;8363507;28;20064;-53
2024/01/29 09:45:41;;;;;;;1.67;0.77;;;18.80;41.40;;;;;;8363507;28;20037;-53
2024/01/29 09:49:45;;;;;;;1.15;0.85;;;18.80;41.40;;;;;;8363493;28;20090;-53
2024/01/29 09:53:49;;;;;;;1.08;0.88;;;18.80;41.40;;;;;;8363194;28;20040;-53
2024/01/29 09:57:49;;;;;;;0.88;0.88;;;18.80;41.40;;;;;;8363017;28;20494;-54
2024/01/29 10:01:50;;;;;;;1.85;0.90;;;18.80;41.40;;;;;;8362786;28;20372;-53
2024/01/29 10:05:52;;;;;;;1.10;0.80;;;18.80;41.40;;;;;;8362730;28;20051;-51
2024/01/29 10:09:52;;;;;;;0.90;0.70;;;18.80;41.40;;;;;;8362591;28;20131;-51
2024/01/29 10:13:59;;;;;;;0.90;0.90;;;18.80;41.40;;;;;;8362603;28;20044;-53
2024/01/29 10:18:00;;;;;;;1.00;0.63;;;18.80;41.40;;;;;;8362231;28;20119;-51
2024/01/29 10:22:01;;;;;;;0.80;0.80;;;18.80;41.40;;;;;;8362496;28;20414;-49
2024/01/29 10:26:02;;;;;;;0.80;0.80;;;18.80;41.30;;;;;;8343871;28;20063;-50
2024/01/29 10:30:04;;;;;;;0.90;0.90;;;18.80;41.30;;;;;;8361992;28;20033;-50
2024/01/29 10:34:05;;;;;;;;;;;18.80;41.40;;;;;;8361316;28;20029;-50
2024/01/29 10:38:06;;;;;;;1.00;0.90;;;18.80;41.30;;;;;;8361512;28;19969;-48
2024/01/29 10:42:09;;;;;;;;;;;18.80;41.30;;;;;;8362101;28;20029;-48
2024/01/29 10:46:12;;;;;;;1.15;0.80;;;18.80;41.40;;;;;;8361404;28;19913;-49
2024/01/29 10:50:16;;;;;;;1.15;1.00;;;18.80;41.40;;;;;;8361246;28;20037;-51
2024/01/29 10:54:18;;;;;;;1.00;0.90;;;18.80;41.40;;;;;;8361487;28;20491;-49
2024/01/29 10:58:20;;;;;;;1.00;0.80;;;18.80;41.40;;;;;;8360781;28;20496;-49
2024/01/29 11:02:21;;;;;;;0.70;0.70;;;18.80;41.40;;;;;;8361004;28;20029;-49
2024/01/29 11:06:33;;;;;;;0.98;0.82;;;18.70;41.30;;;;;;8360968;28;20039;-48
2024/01/29 11:10:35;;;;;;;1.10;0.82;;;18.70;41.40;;;;;;8361534;28;20060;-51
2024/01/29 11:14:36;;;;;;;0.80;0.80;;;18.80;41.40;;;;;;8360739;28;20033;-48
2024/01/29 11:18:37;;;;;;;0.82;0.82;;;18.80;41.40;;;;;;8360382;28;20033;-50
2024/01/29 11:22:39;;;;;;;1.67;1.20;;;18.80;41.90;;;;;;8360668;28;20108;-50
2024/01/29 11:26:39;;;;;;;2.35;0.80;;;18.70;41.40;;;;;;8360407;28;20065;-50
2024/01/29 11:30:47;;;;;;;1.15;0.60;;;18.80;41.40;;;;;;8360379;28;20029;-52
2024/01/29 11:34:48;;;;;;;0.75;0.70;;;18.80;41.40;;;;;;8358965;28;20091;-49
2024/01/29 11:38:48;;;;;;;0.95;0.70;;;18.80;41.40;;;;;;8359322;28;20025;-50
2024/01/29 11:42:50;;;;;;;0.80;0.80;;;18.80;41.40;;;;;;8360070;28;20098;-48
2024/01/29 11:46:51;;;;;;;0.80;0.80;;;18.80;41.40;;;;;;8359920;28;20036;-50
2024/01/29 11:50:57;;;;;;;2.05;0.90;;;18.80;41.40;;;;;;8359856;28;20143;-49
2024/01/29 11:54:59;;;;;;;0.90;0.90;;;18.80;41.40;;;;;;8359939;28;20033;-50
2024/01/29 11:59:01;;;;;;;0.68;0.60;;;18.70;41.90;;;;;;8359702;28;20649;-50
2024/01/29 12:03:04;;;;;;;0.80;0.80;;;18.70;41.40;;;;;;8359741;28;20028;-48
2024/01/29 12:07:05;;;;;;;0.82;0.80;;;18.70;41.40;;;;;;8359545;28;20565;-50
2024/01/29 12:11:07;;;;;;;1.00;0.90;;;18.70;41.50;;;;;;8358352;28;20041;-49
2024/01/29 12:15:11;;;;;;;0.90;0.90;;;18.70;41.50;;;;;;8359541;28;20029;-49
2024/01/29 12:19:12;;;;;;;0.80;0.80;;;18.70;41.50;;;;;;8359543;28;20029;-50
2024/01/29 12:23:16;;;;;;;0.80;0.80;;;18.70;41.60;;;;;;8359455;28;20033;-51
2024/01/29 12:27:17;;;;;;;0.90;0.90;;;18.60;41.50;;;;;;8359348;28;20029;-50
2024/01/29 12:31:19;;;;;;;0.90;0.90;;;18.70;41.60;;;;;;8359227;28;20501;-48
2024/01/29 12:35:26;;;;;;;;;;;18.60;41.50;;;;;;8359659;28;20394;-47
2024/01/29 12:39:28;;;;;;;0.70;0.70;;;18.60;41.50;;;;;;8359305;28;19909;-50
2024/01/29 12:43:29;;;;;;;1.00;0.70;;;18.70;41.60;;;;;;8357859;28;20072;-51
2024/01/29 12:47:32;;;;;;;0.95;0.80;;;18.70;41.60;;;;;;8360592;28;20033;-53
2024/01/29 12:51:33;;;;;;;0.77;0.60;;;18.70;41.60;;;;;;8364998;28;20067;-52
2024/01/29 12:55:34;;;;;;;1.17;0.82;;;18.70;41.50;;;;;;8365000;28;20037;-53
2024/01/29 12:59:35;;;;;;;0.88;0.70;;;18.70;41.50;;;;;;8364935;28;20041;-51
2024/01/29 13:03:39;;;;;;;0.77;0.77;;;18.70;41.50;;;;;;8364756;28;20082;-51
2024/01/29 13:07:40;;;;;;;0.88;0.88;;;18.70;41.50;;;;;;8364420;28;20057;-53
2024/01/29 13:11:41;;;;;;;1.08;0.98;;;18.70;41.50;;;;;;8364544;28;20108;-53
2024/01/29 13:15:41;;;;;;;0.60;0.60;;;18.70;41.50;;;;;;8364497;28;20537;-52
2024/01/29 13:19:42;;;;;;;1.30;1.15;;;18.70;41.50;;;;;;8364958;28;20029;-50
2024/01/29 13:23:47;;;;;;;1.05;0.65;;;18.70;41.50;;;;;;8364743;28;20124;-53
2024/01/29 13:27:48;;;;;;;2.13;0.90;;;18.70;41.50;;;;;;8364162;28;20143;-53
2024/01/29 13:31:48;;;;;;;0.80;0.80;;;18.70;41.50;;;;;;8363793;28;20068;-53
2024/01/29 13:35:50;;;;;;;0.82;0.82;;;18.70;41.50;;;;;;8363780;28;20036;-54
2024/01/29 13:39:51;;;;;;;0.73;0.73;;;18.70;41.50;;;;;;8363739;28;20501;-51
2024/01/29 13:43:52;;;;;;;1.30;1.10;;;18.70;41.50;;;;;;8363754;28;20402;-54
2024/01/29 13:47:52;;;;;;;0.70;0.70;;;18.70;41.50;;;;;;8363537;28;20271;-53
2024/01/29 13:51:54;;;;;;;0.80;0.80;;;18.70;41.50;;;;;;8363875;28;20029;-52
2024/01/29 13:55:54;;;;;;;0.80;0.80;;;18.70;41.60;;;;;;8363054;28;20037;-51
2024/01/29 13:59:58;;;;;;;0.63;0.63;;;18.70;41.60;;;;;;8362035;28;20037;-50
2024/01/29 14:03:59;;;;;;;0.70;0.70;;;18.60;41.60;;;;;;8363099;28;20037;-52
2024/01/29 14:08:00;;;;;;;0.80;0.80;;;18.70;41.60;;;;;;8362771;28;20127;-54
2024/01/29 14:12:01;;;;;;;0.88;0.70;;;18.60;41.60;;;;;;8361359;28;20040;-50
2024/01/29 14:16:01;;;;;;;0.73;0.70;;;18.70;41.60;;;;;;8361430;28;20486;-51
2024/01/29 14:20:04;;;;;;;0.88;0.80;;;18.60;41.60;;;;;;8362680;28;20191;-53
2024/01/29 14:24:06;;;;;;;1.13;0.60;;;18.60;41.60;;;;;;8362525;28;20491;-51
2024/01/29 14:28:06;;;;;;;;;;;18.60;41.50;;;;;;8362550;28;20471;-51
2024/01/29 14:32:08;;;;;;;0.93;0.80;;;18.70;41.60;;;;;;8362201;28;20369;-54
2024/01/29 14:36:08;;;;;;;1.05;0.80;;;18.70;41.60;;;;;;8361749;28;20118;-53
2024/01/29 14:40:10;;;;;;;0.70;0.70;;;18.60;41.50;;;;;;8361769;28;20045;-52
2024/01/29 14:44:10;;;;;;;1.17;0.95;;;18.70;41.60;;;;;;8361998;28;20040;-53
2024/01/29 14:48:11;;;;;;;0.70;0.70;;;18.70;41.60;;;;;;8361637;28;20029;-51
2024/01/29 14:52:12;;;;;;;0.80;0.70;;;18.70;41.60;;;;;;8361373;28;20041;-53
2024/01/29 14:56:12;;;;;;;1.15;0.88;;;18.70;41.60;;;;;;8361206;28;20549;-52
2024/01/29 15:00:14;;;;;;;0.80;0.77;;;18.70;41.60;;;;;;8361452;28;20029;-53
2024/01/29 15:04:15;;;;;;;0.70;0.60;;;18.70;41.60;;;;;;8361161;28;20487;-50
2024/01/29 15:08:15;;;;;;;0.75;0.70;;;18.70;41.60;;;;;;8360896;28;20468;-53
2024/01/29 15:12:17;;;;;;;0.98;0.88;;;18.70;41.60;;;;;;8360906;28;20035;-52
2024/01/29 15:16:18;;;;;;;0.85;0.75;;;18.70;41.60;;;;;;8360704;28;20040;-50
2024/01/29 15:20:19;;;;;;;0.90;0.60;;;18.70;41.60;;;;;;8360693;28;20063;-50
2024/01/29 15:24:19;;;;;;;1.00;0.90;;;18.70;41.60;;;;;;8360561;28;20040;-52
2024/01/29 15:28:20;;;;;;;0.73;0.73;;;18.70;41.60;;;;;;8359276;28;20433;-54
2024/01/29 15:32:21;;;;;;;0.98;0.82;;;18.70;41.60;;;;;;8360313;28;20068;-53
2024/01/29 15:36:21;;;;;;;0.82;0.77;;;18.70;41.60;;;;;;8358927;28;20033;-51
2024/01/29 15:40:23;;;;;;;0.73;0.73;;;18.70;41.60;;;;;;8360107;28;20083;-52
2024/01/29 15:44:24;;;;;;;1.02;0.93;;;18.70;41.60;;;;;;8360230;28;20150;-50
2024/01/29 15:48:25;;;;;;;0.77;0.77;;;18.70;41.60;;;;;;8358789;28;20063;-52
2024/01/29 15:52:26;;;;;;;0.90;0.80;;;18.70;41.60;;;;;;8359881;28;20372;-54
2024/01/29 15:56:27;;;;;;;0.60;0.60;;;18.70;41.60;;;;;;8359836;28;20036;-53
2024/01/29 16:00:33;;;;;;;0.95;0.70;;;18.70;41.60;;;;;;8359911;28;20478;-53
2024/01/29 16:04:34;;;;;;;1.42;0.90;;;18.70;41.60;;;;;;8359810;28;20110;-54
2024/01/29 16:08:35;;;;;;;1.08;0.80;;;18.70;42.10;;;;;;8359445;28;20069;-53
2024/01/29 16:12:36;;;;;;;0.68;0.65;;;18.70;41.60;;;;;;8359720;28;20079;-54
2024/01/29 16:16:40;;;;;;;0.93;0.80;;;18.70;41.60;;;;;;8359571;28;20040;-53
2024/01/29 16:20:41;;;;;;;0.98;0.75;;;18.70;41.60;;;;;;8359239;28;20033;-54
2024/01/29 16:24:41;;;;;;;1.10;0.90;;;18.60;41.60;;;;;;8364285;28;20036;-53
2024/01/29 16:28:42;;;;;;;0.70;0.70;;;18.60;41.70;;;;;;8365862;28;20090;-54
2024/01/29 16:32:43;;;;;;;0.93;0.70;;;18.60;41.70;;;;;;8365729;28;20040;-52
2024/01/29 16:36:43;;;;;;;0.70;0.70;;;18.60;41.70;;;;;;8365560;28;20032;-52
2024/01/29 16:40:44;;;;;;;0.70;0.70;;;18.60;41.70;;;;;;8365378;28;20115;-53
2024/01/29 16:44:46;;;;;;;0.65;0.65;;;18.60;41.70;;;;;;8365383;28;20035;-53
2024/01/29 16:48:48;;;;;;;0.90;0.70;;;18.60;41.70;;;;;;8365318;28;20037;-55
2024/01/29 16:52:48;;;;;;;2.60;0.75;;;18.60;41.70;;;;;;8364948;28;20036;-54
2024/01/29 16:56:49;;;;;;;0.70;0.70;;;18.60;41.60;;;;;;8364870;28;20044;-54
2024/01/29 17:00:50;;;;;;;0.60;0.60;;;18.70;41.60;;;;;;8364724;28;20032;-54
2024/01/29 17:04:51;;;;;;;1.00;0.90;;;18.70;41.60;;;;;;8364958;28;20233;-55
2024/01/29 17:08:52;;;;;;;0.95;0.73;;;18.70;41.60;;;;;;8363310;28;20080;-55
2024/01/29 17:12:53;;;;;;;0.80;0.70;;;18.70;41.60;;;;;;8364551;28;20087;-53
2024/01/29 17:16:54;;;;;;;0.80;0.80;;;18.70;41.60;;;;;;8364482;28;20045;-52
2024/01/29 17:20:54;;;;;;;0.80;0.80;;;18.70;41.60;;;;;;8364208;28;20033;-54
2024/01/29 17:24:55;;;;;;;0.80;0.80;;;18.70;41.60;;;;;;8364203;28;20619;-50
2024/01/29 17:28:56;;;;;;;0.80;0.70;;;18.70;41.60;;;;;;8362856;28;20563;-51
2024/01/29 17:32:57;;;;;;;;;;;18.70;41.60;;;;;;8364376;28;20321;-50
2024/01/29 17:36:58;;;;;;;0.70;0.70;;;18.70;41.60;;;;;;8362341;28;19909;-51
2024/01/29 17:40:58;;;;;;;1.70;0.90;;;18.60;41.60;;;;;;8363601;28;20526;-49
2024/01/29 17:44:59;;;;;;;0.80;0.70;;;18.70;41.80;;;;;;8363588;28;20471;-51
2024/01/29 17:49:00;;;;;;;2.28;0.90;;;18.70;41.90;;;;;;8363490;28;20086;-52
2024/01/29 17:53:01;;;;;;;1.75;1.02;;;18.70;41.80;;;;;;8353003;28;20394;-52
2024/01/29 17:57:02;;;;;;;2.70;0.98;;;18.70;41.80;;;;;;8348234;28;20029;-49
2024/01/29 18:01:03;;;;;;;2.25;1.10;;;18.70;41.80;;;;;;8334360;28;20021;-50
2024/01/29 18:05:04;;;;;;;2.58;0.90;;;18.80;42.10;;;;;;8363588;28;20031;-50
2024/01/29 18:09:04;;;;;;;2.25;0.98;;;18.80;42.20;;;;;;8362713;28;20070;-52
2024/01/29 18:13:05;;;;;;;1.67;1.02;;;18.80;42.30;;;;;;8330253;28;20048;-50
2024/01/29 18:17:06;;;;;;;4.30;0.90;;;18.70;42.20;;;;;;8330120;28;20025;-51
2024/01/29 18:21:06;;;;;;;2.63;1.00;;;18.70;42.30;;;;;;8330130;28;20111;-52
2024/01/29 18:25:07;;;;;;;1.25;1.15;;;18.80;42.40;;;;;;8355909;28;20131;-50
2024/01/29 18:29:08;;;;;;;2.83;1.20;;;18.70;42.20;;;;;;8337264;28;20414;-53
2024/01/29 18:33:09;;;;;;;2.45;1.13;;;18.80;42.20;;;;;;8329859;28;20057;-55
2024/01/29 18:37:09;;;;;;;2.97;1.15;;;18.80;42.30;;;;;;8329488;28;20045;-55
2024/01/29 18:41:17;;;;;;;8.90;1.20;;;18.80;42.30;;;;;;8328195;28;20088;-54
2024/01/29 18:45:18;;;;;;;3.95;1.10;;;18.80;42.40;;;;;;8328809;28;20029;-54
2024/01/29 18:49:18;;;;;;;5.32;1.10;;;18.80;42.90;;;;;;8329314;28;20032;-54
2024/01/29 18:53:19;;;;;;;2.83;1.25;;;18.90;43.00;;;;;;8336767;28;20036;-55
2024/01/29 18:57:20;;;;;;;3.45;1.20;;;18.90;43.50;;;;;;8361796;28;20483;-54
2024/01/29 19:01:22;;;;;;;4.63;1.50;;;18.90;43.50;;;;;;8360805;28;20025;-54
2024/01/29 19:05:23;;;;;;;2.42;1.05;;;18.90;43.50;;;;;;8361632;28;20405;-54
2024/01/29 19:09:24;;;;;;;2.47;0.80;;;18.90;43.30;;;;;;8361466;28;20057;-55
2024/01/29 19:13:25;;;;;;;1.98;1.15;;;18.90;43.30;;;;;;8361544;28;20033;-53
2024/01/29 19:17:25;;;;;;;2.00;0.90;;;18.90;43.30;;;;;;8361149;28;20038;-53
2024/01/29 19:21:26;;;;;;;2.03;1.20;;;18.90;43.20;;;;;;8361255;28;20040;-53
2024/01/29 19:25:27;;;;;;;3.15;1.30;;;18.90;43.20;;;;;;8361070;28;20056;-54
2024/01/29 19:29:29;;;;;;;2.85;1.35;;;18.90;43.10;;;;;;8361107;28;20047;-54
2024/01/29 19:33:30;;;;;;;7.18;1.13;;;18.90;42.90;;;;;;8361124;28;20033;-55
2024/01/29 19:37:31;;;;;;;1.10;0.88;;;19.00;43.10;;;;;;8360824;28;20033;-55
2024/01/29 19:41:32;;;;;;;;;;;18.90;43.10;;;;;;8344579;28;20103;-54
2024/01/29 19:45:33;;;;;;;2.57;1.03;;;19.00;43.10;;;;;;8352275;28;20011;-54
2024/01/29 19:49:34;;;;;;;3.95;0.98;;;18.90;42.80;;;;;;8357645;28;20064;-54
2024/01/29 19:53:35;;;;;;;1.88;1.17;;;19.00;42.70;;;;;;8347252;28;20421;-55
2024/01/29 19:57:42;;;;;;;4.93;1.20;;;19.00;42.60;;;;;;8344567;28;20040;-54
2024/01/29 20:01:45;;;;;;;3.67;1.88;;;19.00;42.80;;;;;;8366433;28;20029;-53
2024/01/29 20:05:47;;;;;;;2.17;0.85;;;19.10;42.80;;;;;;8360388;28;20035;-54
2024/01/29 20:09:48;;;;;;;1.95;0.95;;;19.10;42.70;;;;;;8333585;28;20081;-53
2024/01/29 20:13:49;;;;;;;4.53;1.25;;;19.10;42.60;;;;;;8335330;28;20041;-55
2024/01/29 20:17:49;;;;;;;3.47;0.98;;;19.10;42.50;;;;;;8367018;28;20036;-55
2024/01/29 20:21:50;;;;;;;2.03;1.10;;;19.20;42.30;;;;;;8367008;28;20032;-55
2024/01/29 20:25:51;;;;;;;1.75;1.00;;;19.20;42.30;;;;;;8336478;28;20150;-55
2024/01/29 20:29:52;;;;;;;4.93;1.05;;;19.20;42.30;;;;;;8364118;28;20025;-53
2024/01/29 20:33:53;;;;;;;2.17;1.00;;;19.20;42.30;;;;;;8337201;28;20037;-55
2024/01/29 20:37:55;;;;;;;5.00;1.10;;;19.20;42.50;;;;;;8331130;28;20495;-55
2024/01/29 20:41:55;;;;;;;2.17;0.88;;;19.20;42.40;;;;;;8330991;28;20242;-53
2024/01/29 20:45:56;;;;;;;2.42;0.90;;;19.20;42.40;;;;;;8331012;28;20030;-54
2024/01/29 20:49:56;;;;;;;1.02;0.98;;;19.20;42.40;;;;;;8341017;28;20051;-54
2024/01/29 20:53:57;;;;;;;2.25;0.90;;;19.20;42.50;;;;;;8354239;28;20692;-54
2024/01/29 20:57:58;;;;;;;2.33;1.08;;;19.20;42.40;;;;;;8363152;28;20037;-53